Time;durP1;ratioP1;P1;durP2;ratioP2;P2;SDS_P1;SDS_P2;PMS_P1;PMS_P2;Temp;Humidity;BMP_temperature;BMP_pressure;BME280_temperature;BME280_humidity;BME280_pressure;Samples;Min_cycle;Max_cycle;Signal;HPM_P1;HPM_P2
2022/04/21 00:00:40;;;;;;;0.10;0.10;;;11.00;95.60;;;;;;5006412;28;20032;-68
2022/04/21 00:03:07;;;;;;;0.10;0.10;;;11.00;95.80;;;;;;4989675;28;20503;-68
2022/04/21 00:05:33;;;;;;;0.00;0.00;;;10.80;96.20;;;;;;4989870;28;20154;-68
2022/04/21 00:07:59;;;;;;;0.05;0.05;;;10.70;96.70;;;;;;4989738;28;20105;-68
2022/04/21 00:10:27;;;;;;;0.43;0.35;;;10.70;96.90;;;;;;4989893;28;20030;-68
2022/04/21 00:12:54;;;;;;;0.08;0.08;;;10.40;97.80;;;;;;4990834;28;20105;-68
2022/04/21 00:15:21;;;;;;;0.10;0.10;;;10.30;98.60;;;;;;4991205;28;20065;-68
2022/04/21 00:17:47;;;;;;;0.15;0.15;;;10.40;98.50;;;;;;4989606;28;20501;-68
2022/04/21 00:20:13;;;;;;;0.00;0.00;;;10.50;98.50;;;;;;4990774;28;20030;-68
2022/04/21 00:25:26;;;;;;;0.00;0.00;;;10.20;99.50;;;;;;4989768;28;20077;-67
2022/04/21 00:27:53;;;;;;;0.20;0.20;;;10.30;99.70;;;;;;4989390;28;20041;-68
2022/04/21 00:30:19;;;;;;;0.55;0.55;;;10.40;99.30;;;;;;4973743;28;20026;-68
2022/04/21 00:32:48;;;;;;;0.35;0.35;;;10.40;99.50;;;;;;4989645;28;20042;-68
2022/04/21 00:35:16;;;;;;;0.20;0.20;;;10.40;99.60;;;;;;4990702;28;20394;-68
2022/04/21 00:37:50;;;;;;;0.35;0.25;;;10.20;99.90;;;;;;4989674;28;20031;-68
2022/04/21 00:40:18;;;;;;;0.20;0.20;;;10.30;99.90;;;;;;4957652;28;20121;-67
2022/04/21 00:42:45;;;;;;;0.00;0.00;;;10.10;99.90;;;;;;4992620;28;20096;-68
2022/04/21 00:45:13;;;;;;;5.78;0.57;;;9.90;99.90;;;;;;4993804;28;20030;-68
2022/04/21 00:47:42;;;;;;;0.00;0.00;;;9.80;99.90;;;;;;4993050;28;20026;-68
2022/04/21 00:50:16;;;;;;;0.08;0.08;;;9.90;99.90;;;;;;4994779;28;20546;-67
2022/04/21 00:52:43;;;;;;;0.22;0.22;;;10.10;99.90;;;;;;4993612;28;20034;-68
2022/04/21 00:55:09;;;;;;;0.00;0.00;;;10.10;99.90;;;;;;4993523;28;20487;-68
2022/04/21 00:57:37;;;;;;;0.00;0.00;;;10.10;99.90;;;;;;4992943;28;20569;-68
2022/04/21 01:00:06;;;;;;;0.20;0.20;;;10.10;99.90;;;;;;4993727;28;20038;-68
2022/04/21 01:02:52;;;;;;;0.35;0.35;;;10.10;99.90;;;;;;4993281;28;20156;-68
2022/04/21 01:05:31;;;;;;;0.10;0.10;;;10.10;99.90;;;;;;4982279;28;20027;-68
2022/04/21 01:08:08;;;;;;;0.40;0.20;;;10.10;99.90;;;;;;4981465;28;20030;-68
2022/04/21 01:10:37;;;;;;;0.52;0.52;;;10.10;99.90;;;;;;4978496;28;20035;-68
2022/04/21 01:13:06;;;;;;;0.08;0.08;;;10.00;99.90;;;;;;4994115;28;20513;-68
2022/04/21 01:15:32;;;;;;;0.10;0.10;;;10.00;99.90;;;;;;4994425;28;20479;-68
2022/04/21 01:17:59;;;;;;;0.10;0.10;;;10.00;99.90;;;;;;5009039;28;20034;-68
2022/04/21 01:20:26;;;;;;;0.00;0.00;;;10.10;99.90;;;;;;4992964;28;20030;-68
2022/04/21 01:22:53;;;;;;;0.00;0.00;;;10.10;99.90;;;;;;4994324;28;20498;-68
2022/04/21 01:25:20;;;;;;;0.30;0.20;;;10.00;99.90;;;;;;4992736;28;20022;-68
2022/04/21 01:27:49;;;;;;;0.65;0.30;;;10.00;99.90;;;;;;4992695;28;20034;-68
2022/04/21 01:30:15;;;;;;;2.47;0.35;;;9.90;99.90;;;;;;4992866;28;20393;-68
2022/04/21 01:32:48;;;;;;;0.10;0.10;;;9.80;99.90;;;;;;4993920;28;20022;-68
2022/04/21 01:35:14;;;;;;;0.00;0.00;;;9.80;99.90;;;;;;4992614;28;20494;-67
2022/04/21 01:43:09;;;;;;;0.00;0.00;;;9.80;99.90;;;;;;4994021;28;20541;-67
2022/04/21 01:45:35;;;;;;;0.13;0.13;;;9.70;99.90;;;;;;4993596;28;20030;-68
2022/04/21 01:48:02;;;;;;;0.00;0.00;;;9.70;99.90;;;;;;5000317;23;20108;-66
2022/04/21 01:50:29;;;;;;;0.00;0.00;;;9.70;99.90;;;;;;4975619;28;20049;-66
2022/04/21 01:53:00;;;;;;;0.10;0.10;;;9.60;99.90;;;;;;4973056;28;20585;-67
2022/04/21 01:55:26;;;;;;;0.17;0.17;;;9.50;99.90;;;;;;4972997;28;20073;-68
2022/04/21 01:57:53;;;;;;;0.05;0.05;;;9.30;99.90;;;;;;4973943;28;20113;-66
2022/04/21 02:00:19;;;;;;;0.15;0.13;;;9.10;99.90;;;;;;4972756;28;20084;-66
2022/04/21 02:02:44;;;;;;;0.00;0.00;;;8.80;99.90;;;;;;4972389;28;20105;-66
2022/04/21 02:05:10;;;;;;;0.08;0.08;;;8.80;99.90;;;;;;4974040;28;20038;-67
2022/04/21 02:07:42;;;;;;;0.10;0.10;;;8.80;99.90;;;;;;4973823;28;20031;-67
2022/04/21 02:10:08;;;;;;;0.20;0.20;;;8.90;99.90;;;;;;4972858;28;20602;-67
2022/04/21 02:12:34;;;;;;;0.00;0.00;;;9.00;99.90;;;;;;4974048;28;20073;-67
2022/04/21 02:15:01;;;;;;;1.05;0.70;;;9.20;99.90;;;;;;4972488;28;20629;-67
2022/04/21 02:17:28;;;;;;;0.00;0.00;;;9.10;99.90;;;;;;4987827;28;20391;-68
2022/04/21 02:19:54;;;;;;;0.30;0.30;;;9.10;99.90;;;;;;4973627;28;20023;-67
2022/04/21 02:22:20;;;;;;;0.20;0.20;;;9.00;99.90;;;;;;4973782;28;20085;-67
2022/04/21 02:24:46;;;;;;;0.00;0.00;;;8.90;99.90;;;;;;4973610;28;20058;-67
2022/04/21 02:27:11;;;;;;;0.15;0.15;;;9.10;99.90;;;;;;4973050;28;20038;-67
2022/04/21 02:29:37;;;;;;;1.40;0.47;;;9.10;99.90;;;;;;4988432;28;20051;-66
2022/04/21 02:32:04;;;;;;;0.00;0.00;;;9.00;99.90;;;;;;4973555;28;20479;-66
2022/04/21 02:34:30;;;;;;;0.10;0.10;;;8.80;99.90;;;;;;4973217;28;20030;-67
2022/04/21 02:36:57;;;;;;;0.10;0.10;;;8.50;99.90;;;;;;4973220;28;20521;-67
2022/04/21 02:39:24;;;;;;;0.00;0.00;;;8.40;99.90;;;;;;4973219;28;20118;-66
2022/04/21 02:41:50;;;;;;;0.22;0.22;;;8.30;99.90;;;;;;4984402;28;20436;-67
2022/04/21 02:44:16;;;;;;;0.40;0.30;;;8.20;99.90;;;;;;4971970;28;20027;-68
2022/04/21 02:46:42;;;;;;;0.40;0.40;;;8.10;99.90;;;;;;4986231;28;20046;-68
2022/04/21 02:49:08;;;;;;;0.47;0.47;;;8.20;99.90;;;;;;4986959;28;20035;-66
2022/04/21 02:51:35;;;;;;;0.00;0.00;;;8.00;99.90;;;;;;4971148;28;20023;-66
2022/04/21 02:59:30;;;;;;;0.52;0.40;;;8.20;99.90;;;;;;4985536;28;20085;-66
2022/04/21 03:01:57;;;;;;;0.28;0.28;;;8.30;99.90;;;;;;4987860;28;20027;-67
2022/04/21 03:04:23;;;;;;;0.38;0.38;;;8.40;99.90;;;;;;4953189;28;20359;-67
2022/04/21 03:06:49;;;;;;;0.10;0.10;;;8.40;99.90;;;;;;4966270;28;20495;-67
2022/04/21 03:09:15;;;;;;;0.00;0.00;;;8.50;99.90;;;;;;4964514;28;20033;-67
2022/04/21 03:11:40;;;;;;;0.25;0.25;;;8.50;99.90;;;;;;4962204;28;20046;-67
2022/04/21 03:14:06;;;;;;;0.30;0.30;;;8.50;99.90;;;;;;4972869;28;20705;-66
2022/04/21 03:16:32;;;;;;;0.90;0.73;;;8.50;99.90;;;;;;4964601;28;20105;-67
2022/04/21 03:18:57;;;;;;;0.10;0.10;;;8.40;99.90;;;;;;4987622;28;20069;-67
2022/04/21 03:24:19;;;;;;;0.10;0.10;;;8.40;99.90;;;;;;4970474;28;20031;-67
2022/04/21 03:26:51;;;;;;;0.10;0.10;;;8.40;99.90;;;;;;4952507;29;20082;-67
2022/04/21 03:29:18;;;;;;;0.08;0.08;;;8.30;99.90;;;;;;4967551;28;20032;-67
2022/04/21 03:31:45;;;;;;;0.30;0.30;;;8.20;99.90;;;;;;4953220;28;20707;-67
2022/04/21 03:34:18;;;;;;;0.40;0.40;;;8.30;99.90;;;;;;4967697;28;20118;-68
2022/04/21 03:36:49;;;;;;;0.15;0.15;;;8.10;99.90;;;;;;4952214;29;20067;-67
2022/04/21 03:39:21;;;;;;;0.00;0.00;;;8.10;99.90;;;;;;4967364;28;20488;-67
2022/04/21 03:41:54;;;;;;;0.00;0.00;;;8.00;99.90;;;;;;4959142;28;20491;-67
2022/04/21 03:44:21;;;;;;;0.00;0.00;;;7.70;99.90;;;;;;4987073;28;20054;-67
2022/04/21 03:46:47;;;;;;;0.00;0.00;;;7.70;99.90;;;;;;4986231;28;20394;-67
2022/04/21 03:49:13;;;;;;;0.10;0.10;;;7.60;99.90;;;;;;4986977;28;20113;-68
2022/04/21 03:51:38;;;;;;;0.10;0.10;;;7.40;99.90;;;;;;4971939;28;20027;-67
2022/04/21 03:54:04;;;;;;;0.30;0.30;;;7.40;99.90;;;;;;4971818;28;20104;-67
2022/04/21 03:56:31;;;;;;;0.00;0.00;;;7.50;99.90;;;;;;4971618;28;20038;-67
2022/04/21 03:58:59;;;;;;;0.28;0.28;;;7.50;99.90;;;;;;4972022;28;20031;-67
2022/04/21 04:01:25;;;;;;;1.80;1.52;;;7.50;99.90;;;;;;4986646;28;20114;-67
2022/04/21 04:03:51;;;;;;;0.10;0.10;;;7.50;99.90;;;;;;4963137;28;20751;-67
2022/04/21 04:11:49;;;;;;;0.63;0.30;;;7.30;99.90;;;;;;4937066;29;20547;-68
2022/04/21 04:14:15;;;;;;;0.00;0.00;;;7.40;99.90;;;;;;4951906;28;20406;-66
2022/04/21 04:16:40;;;;;;;0.15;0.15;;;7.40;99.90;;;;;;4963740;28;20030;-65
2022/04/21 04:19:10;;;;;;;0.88;0.73;;;7.10;99.90;;;;;;4971287;28;20055;-66
2022/04/21 04:21:37;;;;;;;0.28;0.25;;;7.00;99.90;;;;;;4985964;28;20113;-67
2022/04/21 04:24:04;;;;;;;0.10;0.10;;;7.10;99.90;;;;;;4980859;28;20053;-67
2022/04/21 04:26:32;;;;;;;0.10;0.10;;;7.20;99.90;;;;;;4961996;28;20026;-68
2022/04/21 04:29:03;;;;;;;0.30;0.30;;;7.30;99.90;;;;;;4975461;28;20395;-68
2022/04/21 04:31:29;;;;;;;0.03;0.03;;;7.50;99.90;;;;;;4949541;28;20038;-67
2022/04/21 04:33:54;;;;;;;9.00;1.02;;;7.60;99.90;;;;;;4981215;28;20027;-66
2022/04/21 04:36:21;;;;;;;0.10;0.10;;;7.60;99.90;;;;;;4985965;28;20027;-67
2022/04/21 04:38:48;;;;;;;0.00;0.00;;;7.60;99.90;;;;;;4971526;28;20026;-67
2022/04/21 04:44:00;;;;;;;0.57;0.40;;;7.70;99.90;;;;;;4984155;28;20470;-66
2022/04/21 04:46:38;;;;;;;0.10;0.10;;;7.40;99.90;;;;;;4959137;28;20050;-66
2022/04/21 04:49:09;;;;;;;0.10;0.10;;;7.20;99.90;;;;;;4950541;28;20035;-67
2022/04/21 04:51:41;;;;;;;0.20;0.20;;;7.00;99.90;;;;;;4946919;29;20035;-66
2022/04/21 04:54:12;;;;;;;0.00;0.00;;;7.00;99.90;;;;;;4946830;29;20114;-64
2022/04/21 04:56:40;;;;;;;0.10;0.10;;;6.90;99.90;;;;;;4947101;29;20039;-65
2022/04/21 04:59:06;;;;;;;0.00;0.00;;;6.90;99.90;;;;;;4947284;29;20268;-65
2022/04/21 05:01:41;;;;;;;7.32;1.00;;;7.00;99.90;;;;;;4932282;28;20046;-65
2022/04/21 05:04:18;;;;;;;0.10;0.10;;;7.10;99.90;;;;;;4949959;28;20384;-67
2022/04/21 05:06:46;;;;;;;0.00;0.00;;;7.30;99.90;;;;;;4950157;29;20039;-67
2022/04/21 05:09:14;;;;;;;0.00;0.00;;;7.40;99.90;;;;;;4951808;29;20522;-67
2022/04/21 05:11:48;;;;;;;0.70;0.70;;;7.40;99.90;;;;;;4950633;28;20038;-67
2022/04/21 05:14:15;;;;;;;0.00;0.00;;;7.50;99.90;;;;;;4947462;28;20047;-66
2022/04/21 05:16:41;;;;;;;0.90;0.90;;;7.40;99.90;;;;;;4979312;28;20042;-68
2022/04/21 05:19:13;;;;;;;0.28;0.28;;;7.40;99.90;;;;;;4962572;28;20035;-64
2022/04/21 05:21:40;;;;;;;0.10;0.10;;;7.50;99.90;;;;;;4951600;29;20122;-67
2022/04/21 05:24:08;;;;;;;0.32;0.32;;;7.50;99.90;;;;;;4966093;28;20031;-67
2022/04/21 05:26:34;;;;;;;0.00;0.00;;;7.50;99.90;;;;;;4951003;28;20035;-67
2022/04/21 05:32:01;;;;;;;0.38;0.38;;;7.60;99.90;;;;;;4955103;29;20028;-67
2022/04/21 05:34:30;;;;;;;0.10;0.10;;;7.70;99.90;;;;;;4969238;28;20023;-67
2022/04/21 05:36:58;;;;;;;1.35;1.20;;;7.80;99.90;;;;;;4954743;29;20033;-66
2022/04/21 05:39:25;;;;;;;0.17;0.17;;;7.90;99.90;;;;;;4953534;29;20487;-67
2022/04/21 05:41:52;;;;;;;0.00;0.00;;;8.10;99.90;;;;;;4954871;29;20402;-67
2022/04/21 05:44:22;;;;;;;0.30;0.30;;;8.10;99.90;;;;;;4953710;29;20035;-66
2022/04/21 05:46:48;;;;;;;3.50;1.00;;;8.20;99.90;;;;;;4929012;28;20035;-67
2022/04/21 05:49:14;;;;;;;0.10;0.10;;;8.40;99.90;;;;;;4953014;28;20102;-67
2022/04/21 05:51:42;;;;;;;0.75;0.68;;;8.50;99.90;;;;;;4969304;28;20126;-67
2022/04/21 05:54:08;;;;;;;0.00;0.00;;;8.40;99.90;;;;;;4954530;29;20086;-67
2022/04/21 05:56:35;;;;;;;4.85;1.45;;;8.60;99.90;;;;;;4952715;29;20023;-66
2022/04/21 05:59:01;;;;;;;0.63;0.57;;;8.60;99.90;;;;;;4969440;28;20034;-67
2022/04/21 06:01:27;;;;;;;0.40;0.40;;;8.70;99.90;;;;;;4953875;28;20577;-67
2022/04/21 06:03:53;;;;;;;0.13;0.13;;;8.70;99.90;;;;;;4953307;28;20039;-67
2022/04/21 06:06:18;;;;;;;0.20;0.20;;;8.80;99.90;;;;;;4952884;29;20067;-67
2022/04/21 06:08:44;;;;;;;0.00;0.00;;;8.80;99.90;;;;;;4954076;29;20031;-67
2022/04/21 06:11:13;;;;;;;0.47;0.47;;;8.90;99.90;;;;;;4953955;29;20043;-67
2022/04/21 06:13:40;;;;;;;0.00;0.00;;;9.00;99.90;;;;;;4968346;28;20031;-67
2022/04/21 06:16:07;;;;;;;0.17;0.17;;;9.10;99.90;;;;;;4961980;28;20113;-67
2022/04/21 06:18:35;;;;;;;0.65;0.52;;;9.20;99.90;;;;;;4988156;28;20047;-67
2022/04/21 06:21:01;;;;;;;0.15;0.15;;;9.20;99.90;;;;;;4988355;28;20031;-66
2022/04/21 06:23:27;;;;;;;0.20;0.20;;;9.20;99.90;;;;;;4988431;28;20085;-66
2022/04/21 06:25:58;;;;;;;2.67;0.90;;;9.30;99.90;;;;;;4973434;28;20188;-66
2022/04/21 06:28:25;;;;;;;;;;;9.50;99.90;;;;;;4971157;28;20026;-66
2022/04/21 06:30:51;;;;;;;0.15;0.13;;;9.50;99.90;;;;;;4952744;28;19910;-66
2022/04/21 06:33:17;;;;;;;0.05;0.05;;;9.60;99.90;;;;;;4952562;28;20046;-66
2022/04/21 06:35:44;;;;;;;0.57;0.57;;;9.80;99.90;;;;;;4952157;28;20523;-66
2022/04/21 06:38:11;;;;;;;0.00;0.00;;;9.80;99.90;;;;;;4953780;29;20114;-65
2022/04/21 06:40:37;;;;;;;0.10;0.10;;;9.90;99.90;;;;;;4951924;28;20027;-65
2022/04/21 06:48:01;;;;;;;0.10;0.10;;;10.00;99.90;;;;;;4953812;29;20484;-65
2022/04/21 06:48:36;;;;;;;0.45;0.40;;;10.20;99.90;;;;;;4951025;28;20041;-66
2022/04/21 06:51:04;;;;;;;0.50;0.50;;;10.10;99.90;;;;;;4952879;28;20035;-65
2022/04/21 06:53:30;;;;;;;1.77;1.10;;;10.20;99.90;;;;;;4952402;29;20517;-65
2022/04/21 06:55:56;;;;;;;0.25;0.25;;;10.40;99.90;;;;;;4953248;29;20080;-64
2022/04/21 06:58:22;;;;;;;2.25;0.90;;;10.40;99.90;;;;;;4952674;29;20035;-65
2022/04/21 07:00:48;;;;;;;0.88;0.88;;;10.30;99.90;;;;;;4953331;29;20089;-65
2022/04/21 07:03:14;;;;;;;3.72;1.95;;;10.40;99.90;;;;;;4951599;29;20240;-66
2022/04/21 07:05:39;;;;;;;0.10;0.10;;;10.60;99.90;;;;;;4952801;28;20182;-65
2022/04/21 07:08:07;;;;;;;0.63;0.55;;;10.80;99.90;;;;;;4952739;29;20035;-65
2022/04/21 07:10:34;;;;;;;0.00;0.00;;;11.00;99.90;;;;;;4952457;29;20058;-64
2022/04/21 07:13:08;;;;;;;0.15;0.15;;;11.10;99.90;;;;;;4951887;29;20030;-65
2022/04/21 07:15:33;;;;;;;0.15;0.15;;;11.30;99.90;;;;;;4955412;28;20033;-64
2022/04/21 07:17:59;;;;;;;0.00;0.00;;;11.40;99.90;;;;;;4972059;28;20525;-64
2022/04/21 07:20:25;;;;;;;0.00;0.00;;;11.50;99.90;;;;;;4972308;28;20035;-64
2022/04/21 07:22:51;;;;;;;0.08;0.08;;;11.50;99.90;;;;;;4972571;28;20387;-64
2022/04/21 07:25:16;;;;;;;0.55;0.55;;;11.50;99.90;;;;;;4986946;28;20035;-65
2022/04/21 07:27:42;;;;;;;0.73;0.45;;;11.70;99.90;;;;;;4971849;28;20034;-64
2022/04/21 07:30:09;;;;;;;0.60;0.60;;;12.00;99.90;;;;;;4956212;28;20033;-65
2022/04/21 07:32:35;;;;;;;4.63;0.80;;;12.30;99.90;;;;;;4951829;29;20024;-65
2022/04/21 07:35:01;;;;;;;1.00;0.70;;;12.20;99.90;;;;;;4967769;28;20031;-65
2022/04/21 07:37:27;;;;;;;0.00;0.00;;;12.20;99.90;;;;;;4951391;29;20050;-65
2022/04/21 07:39:53;;;;;;;18.73;2.47;;;12.40;99.90;;;;;;4952888;29;20391;-65
2022/04/21 07:42:18;;;;;;;0.17;0.17;;;12.60;99.90;;;;;;4952793;29;20031;-65
2022/04/21 07:44:44;;;;;;;0.13;0.13;;;12.70;99.90;;;;;;4952700;29;20038;-65
2022/04/21 07:47:10;;;;;;;0.22;0.22;;;12.70;99.90;;;;;;4968934;23;20115;-64
2022/04/21 07:49:45;;;;;;;0.15;0.15;;;12.60;99.90;;;;;;4962701;28;20118;-64
2022/04/21 07:55:06;;;;;;;0.20;0.20;;;12.90;99.80;;;;;;4964010;28;20031;-65
2022/04/21 07:57:32;;;;;;;3.30;0.85;;;13.00;99.60;;;;;;4952346;29;20114;-65
2022/04/21 07:59:57;;;;;;;0.00;0.00;;;12.50;99.80;;;;;;4951390;29;20444;-64
2022/04/21 08:02:24;;;;;;;1.60;1.50;;;12.40;99.90;;;;;;4952285;29;20050;-65
2022/04/21 08:04:50;;;;;;;0.20;0.20;;;12.20;99.90;;;;;;4952398;28;20035;-65
2022/04/21 08:07:16;;;;;;;0.10;0.10;;;12.10;99.90;;;;;;4951126;29;20371;-65
2022/04/21 08:09:42;;;;;;;0.10;0.10;;;12.30;99.90;;;;;;4952273;29;20110;-65
2022/04/21 08:12:08;;;;;;;0.20;0.20;;;12.50;99.90;;;;;;4951142;29;20036;-65
2022/04/21 08:14:35;;;;;;;2.55;0.65;;;12.60;99.90;;;;;;4951170;28;20031;-65
2022/04/21 08:17:03;;;;;;;0.77;0.77;;;12.30;99.90;;;;;;4967377;28;20031;-65
2022/04/21 08:19:28;;;;;;;0.00;0.00;;;12.40;99.90;;;;;;4951693;28;20114;-65
2022/04/21 08:21:54;;;;;;;2.25;0.95;;;12.30;99.90;;;;;;4952683;29;20114;-65
2022/04/21 08:32:43;;;;;;;0.45;0.45;;;12.80;99.70;;;;;;4950976;29;20492;-66
2022/04/21 08:35:13;;;;;;;0.52;0.45;;;12.90;99.80;;;;;;4952062;29;20392;-66
2022/04/21 08:37:41;;;;;;;0.38;0.38;;;12.90;99.50;;;;;;4951555;29;20031;-66
2022/04/21 08:40:08;;;;;;;0.20;0.20;;;12.70;99.80;;;;;;4952318;29;20032;-66
2022/04/21 08:42:38;;;;;;;0.00;0.00;;;13.00;99.50;;;;;;4951245;29;20028;-66
2022/04/21 08:45:06;;;;;;;0.25;0.25;;;13.10;99.40;;;;;;4950951;29;20494;-66
2022/04/21 08:47:33;;;;;;;0.13;0.13;;;13.30;98.90;;;;;;4950278;28;20794;-66
2022/04/21 08:50:06;;;;;;;0.00;0.00;;;13.60;98.50;;;;;;4951017;28;20027;-66
2022/04/21 08:52:34;;;;;;;0.45;0.45;;;13.70;98.10;;;;;;4951888;29;20137;-66
2022/04/21 08:55:03;;;;;;;1.55;1.00;;;13.80;97.80;;;;;;4951958;29;20113;-65
2022/04/21 08:57:35;;;;;;;6.55;0.43;;;13.70;97.90;;;;;;4950651;29;20042;-65
2022/04/21 09:00:04;;;;;;;0.68;0.68;;;13.80;97.60;;;;;;4950850;29;20035;-65
2022/04/21 09:02:41;;;;;;;0.43;0.40;;;13.80;97.50;;;;;;4951394;28;20579;-65
2022/04/21 09:05:08;;;;;;;0.00;0.00;;;13.90;98.20;;;;;;4955649;28;20046;-65
2022/04/21 09:07:49;;;;;;;0.30;0.30;;;13.90;97.20;;;;;;4955483;29;20126;-65
2022/04/21 09:10:17;;;;;;;0.95;0.88;;;13.70;97.70;;;;;;4954325;29;20146;-66
2022/04/21 09:12:50;;;;;;;0.30;0.30;;;14.00;97.60;;;;;;4954542;29;20118;-66
2022/04/21 09:15:21;;;;;;;0.32;0.32;;;14.40;96.90;;;;;;4939543;28;20027;-66
2022/04/21 09:17:56;;;;;;;0.40;0.40;;;14.80;96.20;;;;;;4973296;28;20027;-66
2022/04/21 09:20:24;;;;;;;0.00;0.00;;;14.60;96.20;;;;;;4974692;28;20030;-66
2022/04/21 09:22:56;;;;;;;0.20;0.20;;;15.20;95.10;;;;;;4973026;28;20027;-66
2022/04/21 09:25:32;;;;;;;0.32;0.32;;;15.40;94.60;;;;;;4973379;28;20482;-65
2022/04/21 09:27:59;;;;;;;1.65;0.98;;;15.50;94.00;;;;;;4972964;28;20390;-65
2022/04/21 09:30:25;;;;;;;0.22;0.22;;;15.30;93.90;;;;;;4955572;28;20028;-66
2022/04/21 09:32:59;;;;;;;0.17;0.17;;;15.50;93.90;;;;;;4953733;29;20392;-66
2022/04/21 09:35:28;;;;;;;8.50;2.08;;;15.40;93.50;;;;;;4953840;29;20094;-66
2022/04/21 09:37:56;;;;;;;3.17;0.43;;;15.60;93.10;;;;;;4954704;29;20039;-66
2022/04/21 09:40:28;;;;;;;0.10;0.10;;;15.70;93.20;;;;;;4953604;29;20027;-66
2022/04/21 09:43:01;;;;;;;1.75;0.38;;;15.60;93.10;;;;;;4954876;29;20517;-66
2022/04/21 09:48:30;;;;;;;0.65;0.20;;;15.70;93.10;;;;;;4954254;29;20035;-66
2022/04/21 09:51:10;;;;;;;0.15;0.15;;;15.50;93.10;;;;;;4955122;29;20027;-66
2022/04/21 09:54:01;;;;;;;0.17;0.17;;;15.20;93.30;;;;;;4955164;29;20034;-66
2022/04/21 09:56:40;;;;;;;0.17;0.17;;;15.60;93.40;;;;;;4954740;29;20086;-66
2022/04/21 09:59:12;;;;;;;0.00;0.00;;;16.10;92.90;;;;;;4953374;29;20039;-66
2022/04/21 10:01:41;;;;;;;0.22;0.22;;;16.60;92.30;;;;;;4953400;29;20031;-66
2022/04/21 10:04:12;;;;;;;0.00;0.00;;;16.70;92.00;;;;;;4931363;28;20066;-64
2022/04/21 10:06:42;;;;;;;;;;;16.40;92.10;;;;;;4953558;28;20042;-66
2022/04/21 10:09:09;;;;;;;0.43;0.32;;;16.50;91.50;;;;;;4965976;28;19981;-65
2022/04/21 10:11:42;;;;;;;0.22;0.20;;;16.70;92.20;;;;;;4954630;29;20035;-66
2022/04/21 10:14:13;;;;;;;0.00;0.00;;;16.80;91.20;;;;;;4952648;28;20054;-66
2022/04/21 10:16:42;;;;;;;0.28;0.28;;;16.80;91.30;;;;;;4965380;28;20038;-66
2022/04/21 10:19:10;;;;;;;0.05;0.05;;;16.90;91.00;;;;;;4972398;28;20529;-66
2022/04/21 10:21:48;;;;;;;0.20;0.20;;;17.10;91.00;;;;;;4972398;28;20030;-66
2022/04/21 10:24:25;;;;;;;0.28;0.28;;;17.00;90.40;;;;;;4960879;28;20450;-66
2022/04/21 10:26:51;;;;;;;0.10;0.10;;;17.10;90.40;;;;;;4952451;29;20444;-67
2022/04/21 10:29:18;;;;;;;0.20;0.15;;;17.10;90.60;;;;;;4953815;28;20027;-66
2022/04/21 10:32:03;;;;;;;0.08;0.08;;;17.30;90.10;;;;;;4953952;29;20531;-66
2022/04/21 10:34:42;;;;;;;0.15;0.15;;;17.00;90.80;;;;;;4952594;29;20122;-67
2022/04/21 10:37:20;;;;;;;0.28;0.22;;;17.10;91.30;;;;;;4953999;29;20156;-67
2022/04/21 10:40:06;;;;;;;0.00;0.00;;;17.30;90.10;;;;;;4952467;29;20031;-67
2022/04/21 10:42:57;;;;;;;0.10;0.10;;;17.50;89.90;;;;;;4954308;29;20031;-67
2022/04/21 10:45:31;;;;;;;0.00;0.00;;;17.60;90.20;;;;;;4953228;29;20419;-67
2022/04/21 10:48:12;;;;;;;0.60;0.52;;;18.00;88.30;;;;;;4953100;29;20031;-68
2022/04/21 10:50:40;;;;;;;0.20;0.20;;;17.80;87.70;;;;;;4952824;28;20054;-67
2022/04/21 10:58:41;;;;;;;0.20;0.20;;;17.60;88.30;;;;;;4952538;29;20033;-67
2022/04/21 11:01:11;;;;;;;1.92;0.85;;;17.40;87.40;;;;;;4953496;29;20069;-68
2022/04/21 11:03:39;;;;;;;0.00;0.00;;;17.60;87.80;;;;;;4968468;28;20082;-67
2022/04/21 11:06:11;;;;;;;0.15;0.15;;;17.80;89.10;;;;;;4951950;29;20047;-67
2022/04/21 11:08:37;;;;;;;2.10;0.40;;;18.40;85.70;;;;;;4951799;28;20396;-67
2022/04/21 11:11:04;;;;;;;2.78;0.82;;;18.10;86.60;;;;;;4952691;29;20336;-67
2022/04/21 11:14:06;;;;;;;0.30;0.25;;;18.00;87.40;;;;;;4952273;28;20031;-67
2022/04/21 11:16:45;;;;;;;0.40;0.32;;;18.20;87.30;;;;;;4962905;28;20395;-66
2022/04/21 11:19:29;;;;;;;0.10;0.10;;;18.80;85.40;;;;;;4972598;28;20058;-67
2022/04/21 11:22:06;;;;;;;0.85;0.30;;;19.00;85.10;;;;;;4972401;28;20035;-68
2022/04/21 11:25:05;;;;;;;0.00;0.00;;;18.90;83.90;;;;;;4971510;28;20037;-67
2022/04/21 11:27:34;;;;;;;0.00;0.00;;;18.70;82.20;;;;;;4970393;28;20050;-67
2022/04/21 11:30:14;;;;;;;0.15;0.13;;;19.20;81.30;;;;;;4957690;28;20150;-68
2022/04/21 11:32:52;;;;;;;0.20;0.10;;;19.60;81.20;;;;;;4951736;29;20035;-67
2022/04/21 11:35:22;;;;;;;0.93;0.55;;;19.70;79.80;;;;;;4952344;29;20062;-68
2022/04/21 11:38:00;;;;;;;1.17;0.38;;;19.30;81.00;;;;;;4952389;29;20035;-67
2022/04/21 11:40:29;;;;;;;3.95;1.25;;;19.00;81.10;;;;;;4951390;29;20039;-67
2022/04/21 11:42:57;;;;;;;0.00;0.00;;;19.30;83.00;;;;;;4952907;29;20054;-67
2022/04/21 11:45:26;;;;;;;1.13;1.02;;;19.40;81.10;;;;;;4953040;29;20259;-67
2022/04/21 11:47:53;;;;;;;0.10;0.10;;;19.80;78.40;;;;;;4950766;29;20035;-67
2022/04/21 11:50:28;;;;;;;0.05;0.05;;;19.60;78.70;;;;;;4951610;28;20035;-66
2022/04/21 11:52:56;;;;;;;0.10;0.03;;;20.00;77.90;;;;;;4950921;29;20522;-66
2022/04/21 11:55:25;;;;;;;0.00;0.00;;;20.50;78.20;;;;;;4951171;29;20507;-66
2022/04/21 11:57:52;;;;;;;0.65;0.22;;;20.40;77.30;;;;;;4951727;29;20626;-67
2022/04/21 12:06:28;;;;;;;0.00;0.00;;;21.00;75.10;;;;;;4935351;29;20035;-66
2022/04/21 12:08:54;;;;;;;0.82;0.63;;;20.00;76.00;;;;;;4950888;28;20432;-66
2022/04/21 12:11:22;;;;;;;0.57;0.30;;;19.90;75.90;;;;;;4950962;29;20034;-67
2022/04/21 12:13:49;;;;;;;0.15;0.13;;;20.20;74.50;;;;;;4966641;28;20027;-68
2022/04/21 12:16:52;;;;;;;0.08;0.08;;;20.50;74.50;;;;;;4970225;28;20029;-67
2022/04/21 12:19:37;;;;;;;0.05;0.05;;;20.00;75.00;;;;;;4962809;28;20038;-67
2022/04/21 12:22:07;;;;;;;0.10;0.10;;;20.50;75.80;;;;;;4951721;29;20445;-67
2022/04/21 12:24:45;;;;;;;0.65;0.43;;;21.30;74.20;;;;;;4952504;29;20060;-67
2022/04/21 12:27:36;;;;;;;0.20;0.10;;;20.70;72.80;;;;;;4965504;28;20106;-67
2022/04/21 12:30:08;;;;;;;0.00;0.00;;;20.70;73.30;;;;;;4964528;28;20035;-62
2022/04/21 12:32:40;;;;;;;0.10;0.10;;;19.90;74.30;;;;;;4952262;29;20621;-67
2022/04/21 12:35:09;;;;;;;0.82;0.35;;;20.00;74.60;;;;;;4952242;29;20031;-67
2022/04/21 12:38:50;;;;;;;0.00;0.00;;;20.40;75.60;;;;;;4951359;28;20035;-67
2022/04/21 12:40:39;;;;;;;0.68;0.52;;;20.30;74.90;;;;;;4954804;29;20043;-67
2022/04/21 12:43:07;;;;;;;0.68;0.38;;;20.80;72.80;;;;;;4954625;29;20040;-66
2022/04/21 12:45:33;;;;;;;0.10;0.10;;;20.50;73.40;;;;;;4954597;29;20546;-67
2022/04/21 12:47:59;;;;;;;0.17;0.10;;;20.70;71.50;;;;;;4953993;29;20086;-67
2022/04/21 12:50:25;;;;;;;0.60;0.40;;;20.70;73.20;;;;;;4955890;29;20031;-67
2022/04/21 12:52:58;;;;;;;0.00;0.00;;;20.30;74.40;;;;;;4954777;28;20114;-67
2022/04/21 12:55:28;;;;;;;1.52;0.77;;;19.60;74.70;;;;;;4955517;29;20035;-67
2022/04/21 12:58:13;;;;;;;0.20;0.15;;;19.00;75.50;;;;;;4954217;28;20122;-67
2022/04/21 13:00:45;;;;;;;1.85;1.02;;;19.10;77.00;;;;;;4956147;29;20039;-67
2022/04/21 13:03:14;;;;;;;0.28;0.28;;;18.80;75.90;;;;;;4955803;29;20102;-66
2022/04/21 13:05:53;;;;;;;0.22;0.22;;;18.10;77.40;;;;;;4953864;29;20035;-66
2022/04/21 13:08:20;;;;;;;0.03;0.03;;;18.10;76.90;;;;;;4955277;29;20037;-66
2022/04/21 13:10:46;;;;;;;0.30;0.28;;;18.10;78.50;;;;;;4955715;29;20102;-67
2022/04/21 13:13:12;;;;;;;0.03;0.03;;;18.10;77.70;;;;;;4954269;29;20023;-66
2022/04/21 13:15:38;;;;;;;0.25;0.20;;;18.00;78.10;;;;;;4958456;28;20569;-67
2022/04/21 13:18:04;;;;;;;0.10;0.10;;;18.10;78.50;;;;;;4973045;28;20037;-67
2022/04/21 13:23:14;;;;;;;0.10;0.10;;;18.30;77.20;;;;;;4974477;28;20054;-66
2022/04/21 13:25:41;;;;;;;0.15;0.13;;;18.30;77.60;;;;;;4974362;28;20127;-67
2022/04/21 13:28:07;;;;;;;0.00;0.00;;;18.20;77.60;;;;;;4972471;28;20114;-67
2022/04/21 13:30:33;;;;;;;0.00;0.00;;;18.50;76.20;;;;;;4955822;28;20701;-67
2022/04/21 13:35:43;;;;;;;0.00;0.00;;;18.60;75.00;;;;;;4954017;28;20156;-67
2022/04/21 13:38:09;;;;;;;0.32;0.30;;;18.90;75.20;;;;;;4953426;29;20043;-67
2022/04/21 13:40:35;;;;;;;0.00;0.00;;;19.10;74.60;;;;;;4954999;29;20313;-66
2022/04/21 13:43:01;;;;;;;0.00;0.00;;;19.40;74.60;;;;;;4953831;29;20038;-66
2022/04/21 13:45:26;;;;;;;0.75;0.40;;;19.30;73.40;;;;;;4954496;29;20389;-66
2022/04/21 13:47:52;;;;;;;0.20;0.20;;;19.40;73.50;;;;;;4976966;23;20096;-72
2022/04/21 13:50:18;;;;;;;0.00;0.00;;;20.50;71.10;;;;;;4980811;28;20027;-72
2022/04/21 13:52:44;;;;;;;0.10;0.10;;;21.10;70.90;;;;;;4972590;28;20027;-72
2022/04/21 13:55:10;;;;;;;0.03;0.03;;;20.60;71.40;;;;;;4973935;28;20037;-72
2022/04/21 13:57:37;;;;;;;0.10;0.10;;;20.50;72.40;;;;;;4971975;28;20118;-72
2022/04/21 14:00:06;;;;;;;0.05;0.05;;;20.10;73.00;;;;;;4972585;28;20471;-72
2022/04/21 14:02:32;;;;;;;0.25;0.10;;;19.90;71.90;;;;;;4956603;28;20038;-72